SAS62L EHAM-EKCH
Flight info
| Callsign | SAS62L |
|---|---|
| Flight time | 0h 56m |
| Altitude | 35000 |
| Route | ANDIK N873 JUIST DCT DOSUR P729 TUDLO |
| Aircraft | A20N/M-SDE3FGIJ1RWXY/ALB1 |
Departure
| Time | 2026-05-06 01:57 |
|---|---|
| Airport | Amsterdam Airport Schiphol (EHAM) |
Arrival
| Time | 2026-05-06 02:53 |
|---|---|
| Airport | Copenhagen Kastrup Airport (EKCH) |
| Time | Latitude | Longitude | Altitude | Speed | Heading |
|---|---|---|---|---|---|
| 2026-05-06 01:57 | 52.46932 | 4.86152 | 7810 ft | 271 kts | 357° |
| 2026-05-06 01:57 | 52.48822 | 4.85935 | 8667 ft | 276 kts | 357° |
| 2026-05-06 01:57 | 52.50730 | 4.85730 | 9496 ft | 280 kts | 357° |
| 2026-05-06 01:57 | 52.52642 | 4.85731 | 10267 ft | 285 kts | 9° |
| 2026-05-06 01:58 | 52.54552 | 4.86937 | 10762 ft | 302 kts | 33° |
| 2026-05-06 01:58 | 52.56093 | 4.89392 | 11185 ft | 320 kts | 51° |
| 2026-05-06 01:58 | 52.57474 | 4.92344 | 11830 ft | 330 kts | 52° |
| 2026-05-06 01:58 | 52.58870 | 4.95350 | 12620 ft | 334 kts | 51° |
| 2026-05-06 01:59 | 52.60279 | 4.98334 | 13372 ft | 338 kts | 51° |
| 2026-05-06 01:59 | 52.61725 | 5.01372 | 14086 ft | 343 kts | 51° |
| 2026-05-06 01:59 | 52.63231 | 5.04521 | 14801 ft | 347 kts | 51° |
| 2026-05-06 01:59 | 52.64735 | 5.07666 | 15490 ft | 352 kts | 51° |
| 2026-05-06 02:00 | 52.66243 | 5.10826 | 16179 ft | 357 kts | 51° |
| 2026-05-06 02:00 | 52.67773 | 5.14034 | 16863 ft | 361 kts | 52° |
| 2026-05-06 02:00 | 52.69334 | 5.17318 | 17537 ft | 364 kts | 52° |
| 2026-05-06 02:00 | 52.70914 | 5.20648 | 18187 ft | 369 kts | 52° |
| 2026-05-06 02:01 | 52.72490 | 5.23974 | 18815 ft | 373 kts | 52° |
| 2026-05-06 02:01 | 52.74082 | 5.27333 | 19415 ft | 377 kts | 52° |
| 2026-05-06 02:01 | 52.75731 | 5.30809 | 20016 ft | 381 kts | 52° |
| 2026-05-06 02:01 | 52.77361 | 5.34248 | 20586 ft | 385 kts | 52° |
| 2026-05-06 02:02 | 52.78989 | 5.37684 | 21139 ft | 389 kts | 52° |
| 2026-05-06 02:02 | 52.80679 | 5.41261 | 21689 ft | 393 kts | 52° |
| 2026-05-06 02:02 | 52.82343 | 5.44792 | 22222 ft | 397 kts | 52° |
| 2026-05-06 02:02 | 52.84047 | 5.48414 | 22743 ft | 401 kts | 52° |
| 2026-05-06 02:03 | 52.85757 | 5.52058 | 23256 ft | 405 kts | 52° |
| 2026-05-06 02:03 | 52.87529 | 5.55835 | 23774 ft | 408 kts | 52° |
| 2026-05-06 02:03 | 52.89252 | 5.59520 | 24287 ft | 412 kts | 52° |
| 2026-05-06 02:03 | 52.91036 | 5.63336 | 24803 ft | 415 kts | 52° |
| 2026-05-06 02:04 | 52.92781 | 5.67075 | 25308 ft | 418 kts | 53° |
| 2026-05-06 02:04 | 52.94556 | 5.70882 | 25804 ft | 421 kts | 53° |
| 2026-05-06 02:04 | 52.96336 | 5.74711 | 26270 ft | 424 kts | 53° |
| 2026-05-06 02:04 | 52.98146 | 5.78608 | 26723 ft | 428 kts | 54° |
| 2026-05-06 02:05 | 52.99962 | 5.82524 | 27157 ft | 431 kts | 54° |
| 2026-05-06 02:05 | 53.01836 | 5.86576 | 27599 ft | 434 kts | 54° |
| 2026-05-06 02:05 | 53.03682 | 5.90572 | 28014 ft | 437 kts | 54° |
| 2026-05-06 02:05 | 53.05526 | 5.94568 | 28432 ft | 440 kts | 54° |
| 2026-05-06 02:06 | 53.07396 | 5.98628 | 28857 ft | 442 kts | 54° |
| 2026-05-06 02:06 | 53.09248 | 6.02657 | 29257 ft | 445 kts | 54° |
| 2026-05-06 02:06 | 53.11140 | 6.06774 | 29646 ft | 447 kts | 54° |
| 2026-05-06 02:06 | 53.12989 | 6.10802 | 30135 ft | 447 kts | 55° |
| 2026-05-06 02:07 | 53.14884 | 6.14930 | 30649 ft | 446 kts | 55° |
| 2026-05-06 02:07 | 53.16758 | 6.19024 | 31106 ft | 445 kts | 55° |
| 2026-05-06 02:07 | 53.18605 | 6.23071 | 31540 ft | 445 kts | 56° |
| 2026-05-06 02:07 | 53.20472 | 6.27171 | 31965 ft | 444 kts | 56° |
| 2026-05-06 02:08 | 53.22357 | 6.31317 | 32345 ft | 445 kts | 56° |
| 2026-05-06 02:08 | 53.24221 | 6.35425 | 32710 ft | 445 kts | 56° |
| 2026-05-06 02:08 | 53.26090 | 6.39552 | 33074 ft | 445 kts | 56° |
| 2026-05-06 02:08 | 53.27971 | 6.43714 | 33382 ft | 447 kts | 56° |
| 2026-05-06 02:09 | 53.29848 | 6.47872 | 33667 ft | 448 kts | 56° |
| 2026-05-06 02:09 | 53.31780 | 6.52155 | 33932 ft | 450 kts | 56° |
| 2026-05-06 02:09 | 53.33693 | 6.56218 | 34169 ft | 454 kts | 53° |
| 2026-05-06 02:09 | 53.35788 | 6.60173 | 34404 ft | 458 kts | 50° |
| 2026-05-06 02:10 | 53.38041 | 6.63928 | 34627 ft | 461 kts | 46° |
| 2026-05-06 02:10 | 53.40403 | 6.67585 | 34832 ft | 464 kts | 46° |
| 2026-05-06 02:10 | 53.45161 | 6.74827 | 34852 ft | 465 kts | 46° |
| 2026-05-06 02:11 | 53.49933 | 6.82172 | 34855 ft | 466 kts | 46° |
| 2026-05-06 02:11 | 53.54707 | 6.89568 | 34852 ft | 465 kts | 46° |
| 2026-05-06 02:12 | 53.59365 | 6.97119 | 34854 ft | 466 kts | 48° |
| 2026-05-06 02:12 | 53.63921 | 7.04785 | 34852 ft | 467 kts | 49° |
| 2026-05-06 02:13 | 53.68529 | 7.12574 | 34854 ft | 468 kts | 48° |
| 2026-05-06 02:13 | 53.73112 | 7.20331 | 34855 ft | 469 kts | 48° |
| 2026-05-06 02:14 | 53.77718 | 7.28151 | 34860 ft | 470 kts | 48° |
| 2026-05-06 02:14 | 53.82306 | 7.35952 | 34861 ft | 470 kts | 48° |
| 2026-05-06 02:15 | 53.86891 | 7.43779 | 34862 ft | 471 kts | 48° |
| 2026-05-06 02:15 | 53.91502 | 7.51680 | 34865 ft | 471 kts | 48° |
| 2026-05-06 02:16 | 53.96101 | 7.59592 | 34871 ft | 474 kts | 47° |
| 2026-05-06 02:16 | 54.00705 | 7.67521 | 34871 ft | 474 kts | 49° |
| 2026-05-06 02:17 | 54.05308 | 7.75487 | 34872 ft | 475 kts | 49° |
| 2026-05-06 02:17 | 54.09932 | 7.83516 | 34872 ft | 475 kts | 49° |
| 2026-05-06 02:18 | 54.14539 | 7.91546 | 34878 ft | 476 kts | 49° |
| 2026-05-06 02:18 | 54.19152 | 7.99612 | 34878 ft | 476 kts | 49° |
| 2026-05-06 02:19 | 54.23742 | 8.07667 | 34882 ft | 477 kts | 48° |
| 2026-05-06 02:19 | 54.28350 | 8.15774 | 34884 ft | 478 kts | 48° |
| 2026-05-06 02:20 | 54.35350 | 8.28144 | 34884 ft | 479 kts | 48° |
| 2026-05-06 02:21 | 54.39960 | 8.36327 | 34889 ft | 481 kts | 48° |
| 2026-05-06 02:21 | 54.44594 | 8.44583 | 34885 ft | 482 kts | 48° |
| 2026-05-06 02:22 | 54.49247 | 8.52908 | 34891 ft | 483 kts | 47° |
| 2026-05-06 02:22 | 54.53881 | 8.61216 | 34890 ft | 482 kts | 47° |
| 2026-05-06 02:23 | 54.58545 | 8.69610 | 34889 ft | 482 kts | 48° |
| 2026-05-06 02:23 | 54.63185 | 8.78000 | 34888 ft | 483 kts | 48° |
| 2026-05-06 02:24 | 54.67807 | 8.86382 | 34887 ft | 482 kts | 48° |
| 2026-05-06 02:24 | 54.72419 | 8.94780 | 34892 ft | 485 kts | 48° |
| 2026-05-06 02:25 | 54.77063 | 9.03250 | 34882 ft | 484 kts | 48° |
| 2026-05-06 02:25 | 54.81684 | 9.11730 | 34897 ft | 486 kts | 48° |
| 2026-05-06 02:26 | 54.86303 | 9.20245 | 34894 ft | 487 kts | 48° |
| 2026-05-06 02:26 | 54.90782 | 9.28980 | 34900 ft | 487 kts | 50° |
| 2026-05-06 02:27 | 54.95211 | 9.37796 | 34902 ft | 488 kts | 50° |
| 2026-05-06 02:27 | 54.99715 | 9.46745 | 34159 ft | 492 kts | 50° |
| 2026-05-06 02:27 | 55.01968 | 9.51232 | 33197 ft | 499 kts | 49° |
| 2026-05-06 02:28 | 55.04257 | 9.55792 | 32401 ft | 501 kts | 49° |
| 2026-05-06 02:28 | 55.06553 | 9.60374 | 31701 ft | 499 kts | 48° |
| 2026-05-06 02:28 | 55.08745 | 9.64992 | 30986 ft | 498 kts | 54° |
| 2026-05-06 02:28 | 55.10591 | 9.70058 | 30192 ft | 497 kts | 63° |
| 2026-05-06 02:29 | 55.12026 | 9.75587 | 29334 ft | 495 kts | 72° |
| 2026-05-06 02:29 | 55.13101 | 9.81243 | 28568 ft | 492 kts | 75° |
| 2026-05-06 02:29 | 55.14079 | 9.86884 | 27981 ft | 486 kts | 75° |
| 2026-05-06 02:29 | 55.15037 | 9.92493 | 27449 ft | 479 kts | 75° |
| 2026-05-06 02:30 | 55.15999 | 9.98084 | 26957 ft | 472 kts | 75° |
| 2026-05-06 02:30 | 55.16945 | 10.03525 | 26448 ft | 467 kts | 75° |
| 2026-05-06 02:30 | 55.17886 | 10.08906 | 25778 ft | 465 kts | 74° |
| 2026-05-06 02:30 | 55.18835 | 10.14314 | 25164 ft | 461 kts | 74° |
| 2026-05-06 02:31 | 55.19779 | 10.19692 | 24615 ft | 457 kts | 74° |
| 2026-05-06 02:31 | 55.20660 | 10.24721 | 24091 ft | 453 kts | 74° |
| 2026-05-06 02:31 | 55.21578 | 10.29972 | 23552 ft | 449 kts | 74° |
| 2026-05-06 02:31 | 55.22472 | 10.35107 | 23025 ft | 445 kts | 74° |
| 2026-05-06 02:32 | 55.23372 | 10.40291 | 22497 ft | 441 kts | 73° |
| 2026-05-06 02:32 | 55.24250 | 10.45368 | 21974 ft | 438 kts | 73° |
| 2026-05-06 02:32 | 55.25137 | 10.50502 | 21438 ft | 434 kts | 73° |
| 2026-05-06 02:32 | 55.26003 | 10.55538 | 20914 ft | 431 kts | 73° |
| 2026-05-06 02:33 | 55.26860 | 10.60539 | 20388 ft | 428 kts | 73° |
| 2026-05-06 02:33 | 55.27426 | 10.63845 | 20046 ft | 425 kts | 73° |
| 2026-05-06 02:33 | 55.29398 | 10.75312 | 18846 ft | 417 kts | 74° |
| 2026-05-06 02:34 | 55.30226 | 10.80149 | 18328 ft | 414 kts | 73° |
| 2026-05-06 02:34 | 55.31048 | 10.84959 | 17819 ft | 410 kts | 73° |
| 2026-05-06 02:34 | 55.31858 | 10.89725 | 17330 ft | 406 kts | 73° |
| 2026-05-06 02:34 | 55.32656 | 10.94435 | 16854 ft | 402 kts | 73° |
| 2026-05-06 02:35 | 55.33461 | 10.99194 | 16356 ft | 399 kts | 73° |
| 2026-05-06 02:35 | 55.34242 | 11.03864 | 15871 ft | 395 kts | 73° |
| 2026-05-06 02:35 | 55.35007 | 11.08470 | 15399 ft | 391 kts | 73° |
| 2026-05-06 02:35 | 55.35788 | 11.13185 | 14891 ft | 387 kts | 73° |
| 2026-05-06 02:36 | 55.36540 | 11.17740 | 14401 ft | 384 kts | 73° |
| 2026-05-06 02:36 | 55.37300 | 11.22348 | 13909 ft | 380 kts | 73° |
| 2026-05-06 02:36 | 55.38038 | 11.26831 | 13432 ft | 376 kts | 73° |
| 2026-05-06 02:36 | 55.38752 | 11.31179 | 12966 ft | 373 kts | 73° |
| 2026-05-06 02:37 | 55.39460 | 11.35510 | 12659 ft | 364 kts | 73° |
| 2026-05-06 02:37 | 55.40152 | 11.39749 | 12408 ft | 354 kts | 73° |
| 2026-05-06 02:37 | 55.40837 | 11.43963 | 12156 ft | 348 kts | 73° |
| 2026-05-06 02:37 | 55.41509 | 11.48095 | 11909 ft | 346 kts | 73° |
| 2026-05-06 02:38 | 55.42175 | 11.52215 | 11665 ft | 342 kts | 73° |
| 2026-05-06 02:38 | 55.42831 | 11.56277 | 11355 ft | 336 kts | 73° |
| 2026-05-06 02:38 | 55.43482 | 11.60296 | 11023 ft | 330 kts | 72° |
| 2026-05-06 02:38 | 55.44346 | 11.64065 | 10698 ft | 323 kts | 60° |
| 2026-05-06 02:39 | 55.45515 | 11.67410 | 10382 ft | 317 kts | 55° |
| 2026-05-06 02:39 | 55.46733 | 11.70518 | 10075 ft | 311 kts | 54° |
| 2026-05-06 02:39 | 55.47976 | 11.73649 | 9785 ft | 305 kts | 54° |
| 2026-05-06 02:39 | 55.49167 | 11.76675 | 9600 ft | 296 kts | 54° |
| 2026-05-06 02:40 | 55.50338 | 11.79683 | 9477 ft | 292 kts | 55° |
| 2026-05-06 02:40 | 55.51479 | 11.82629 | 9355 ft | 291 kts | 55° |
| 2026-05-06 02:40 | 55.52628 | 11.85605 | 9246 ft | 291 kts | 55° |
| 2026-05-06 02:40 | 55.53748 | 11.88514 | 9116 ft | 290 kts | 55° |
| 2026-05-06 02:41 | 55.54652 | 11.91690 | 8804 ft | 285 kts | 78° |
| 2026-05-06 02:41 | 55.54606 | 11.95101 | 8150 ft | 284 kts | 105° |
| 2026-05-06 02:41 | 55.53970 | 11.98403 | 7484 ft | 281 kts | 110° |
| 2026-05-06 02:41 | 55.53287 | 12.01611 | 6815 ft | 277 kts | 109° |
| 2026-05-06 02:42 | 55.52678 | 12.04738 | 6171 ft | 272 kts | 106° |
| 2026-05-06 02:42 | 55.52116 | 12.07924 | 5500 ft | 267 kts | 104° |
| 2026-05-06 02:42 | 55.51601 | 12.11051 | 4861 ft | 262 kts | 104° |
| 2026-05-06 02:42 | 55.51112 | 12.14107 | 4428 ft | 257 kts | 103° |
| 2026-05-06 02:43 | 55.50639 | 12.17111 | 4148 ft | 251 kts | 103° |
| 2026-05-06 02:43 | 55.50185 | 12.19998 | 4069 ft | 238 kts | 102° |
| 2026-05-06 02:43 | 55.49745 | 12.22735 | 3990 ft | 227 kts | 106° |
| 2026-05-06 02:43 | 55.49028 | 12.25181 | 3937 ft | 227 kts | 124° |
| 2026-05-06 02:44 | 55.47752 | 12.27058 | 3945 ft | 257 kts | 153° |
| 2026-05-06 02:44 | 55.45976 | 12.27668 | 3942 ft | 270 kts | 182° |
| 2026-05-06 02:44 | 55.44175 | 12.26719 | 3935 ft | 274 kts | 211° |
| 2026-05-06 02:44 | 55.42691 | 12.24660 | 3941 ft | 274 kts | 222° |
| 2026-05-06 02:45 | 55.41174 | 12.22720 | 3813 ft | 266 kts | 199° |
| 2026-05-06 02:45 | 55.39438 | 12.22459 | 3645 ft | 242 kts | 160° |
| 2026-05-06 02:45 | 55.38030 | 12.23960 | 3520 ft | 237 kts | 129° |
| 2026-05-06 02:45 | 55.37233 | 12.26357 | 3386 ft | 230 kts | 99° |
| 2026-05-06 02:46 | 55.37265 | 12.29093 | 3255 ft | 221 kts | 69° |
| 2026-05-06 02:46 | 55.38041 | 12.31323 | 3126 ft | 213 kts | 42° |
| 2026-05-06 02:46 | 55.39292 | 12.32690 | 3004 ft | 212 kts | 26° |
| 2026-05-06 02:46 | 55.40615 | 12.33793 | 2965 ft | 211 kts | 26° |
| 2026-05-06 02:47 | 55.41902 | 12.34871 | 2955 ft | 198 kts | 26° |
| 2026-05-06 02:47 | 55.43090 | 12.35937 | 2954 ft | 182 kts | 32° |
| 2026-05-06 02:47 | 55.44068 | 12.37148 | 3019 ft | 171 kts | 37° |
| 2026-05-06 02:47 | 55.45011 | 12.38437 | 2983 ft | 171 kts | 38° |
| 2026-05-06 02:48 | 55.45930 | 12.39763 | 2973 ft | 171 kts | 39° |
| 2026-05-06 02:48 | 55.46831 | 12.41115 | 2997 ft | 171 kts | 40° |
| 2026-05-06 02:48 | 55.47723 | 12.42485 | 2977 ft | 171 kts | 41° |
| 2026-05-06 02:48 | 55.48637 | 12.43904 | 2855 ft | 171 kts | 41° |
| 2026-05-06 02:49 | 55.49516 | 12.45275 | 2621 ft | 169 kts | 41° |
| 2026-05-06 02:49 | 55.50386 | 12.46633 | 2384 ft | 163 kts | 40° |
| 2026-05-06 02:49 | 55.51208 | 12.47916 | 2172 ft | 152 kts | 41° |
| 2026-05-06 02:49 | 55.51966 | 12.49096 | 1958 ft | 141 kts | 40° |
| 2026-05-06 02:50 | 55.52677 | 12.50203 | 1744 ft | 125 kts | 40° |
| 2026-05-06 02:50 | 55.53339 | 12.51232 | 1580 ft | 124 kts | 40° |
| 2026-05-06 02:50 | 55.53978 | 12.52224 | 1421 ft | 123 kts | 40° |
| 2026-05-06 02:50 | 55.54620 | 12.53221 | 1259 ft | 123 kts | 40° |
| 2026-05-06 02:51 | 55.55259 | 12.54211 | 1096 ft | 122 kts | 40° |
| 2026-05-06 02:51 | 55.55897 | 12.55202 | 929 ft | 122 kts | 40° |
| 2026-05-06 02:51 | 55.56540 | 12.56198 | 757 ft | 122 kts | 40° |
| 2026-05-06 02:51 | 55.57168 | 12.57173 | 590 ft | 121 kts | 40° |
| 2026-05-06 02:52 | 55.57803 | 12.58156 | 421 ft | 121 kts | 40° |
| 2026-05-06 02:52 | 55.58433 | 12.59134 | 255 ft | 121 kts | 40° |
| 2026-05-06 02:52 | 55.59062 | 12.60108 | 93 ft | 120 kts | 40° |
| 2026-05-06 02:52 | 55.59674 | 12.61070 | 22 ft | 107 kts | 40° |
| 2026-05-06 02:53 | 55.60116 | 12.61730 | 24 ft | 57 kts | 41° |
| 2026-05-06 02:53 | 55.60297 | 12.62016 | 26 ft | 22 kts | 41° |
| 2026-05-06 02:53 | 55.60409 | 12.62188 | 26 ft | 20 kts | 38° |
| 2026-05-06 02:53 | 55.60535 | 12.62309 | 24 ft | 20 kts | 19° |
| 2026-05-06 02:54 | 55.60671 | 12.62370 | 23 ft | 20 kts | 12° |
| 2026-05-06 02:54 | 55.60806 | 12.62434 | 21 ft | 19 kts | 31° |
| 2026-05-06 02:54 | 55.60911 | 12.62589 | 21 ft | 19 kts | 40° |
| 2026-05-06 02:54 | 55.61014 | 12.62749 | 20 ft | 19 kts | 40° |
| 2026-05-06 02:55 | 55.61122 | 12.62916 | 18 ft | 19 kts | 40° |
| 2026-05-06 02:55 | 55.61227 | 12.63080 | 19 ft | 19 kts | 41° |
| 2026-05-06 02:55 | 55.61324 | 12.63231 | 20 ft | 18 kts | 40° |
| 2026-05-06 02:55 | 55.61415 | 12.63370 | 22 ft | 17 kts | 40° |
| 2026-05-06 02:56 | 55.61507 | 12.63510 | 22 ft | 17 kts | 40° |
| 2026-05-06 02:56 | 55.61597 | 12.63650 | 23 ft | 17 kts | 40° |
| 2026-05-06 02:56 | 55.61687 | 12.63787 | 23 ft | 16 kts | 40° |
| 2026-05-06 02:56 | 55.61774 | 12.63922 | 24 ft | 16 kts | 41° |
| 2026-05-06 02:57 | 55.61860 | 12.64056 | 24 ft | 16 kts | 36° |
| 2026-05-06 02:57 | 55.61956 | 12.64146 | 25 ft | 15 kts | 23° |
| 2026-05-06 02:57 | 55.62052 | 12.64221 | 26 ft | 15 kts | 25° |
| 2026-05-06 02:57 | 55.62147 | 12.64304 | 26 ft | 15 kts | 26° |
| 2026-05-06 02:58 | 55.62246 | 12.64387 | 25 ft | 15 kts | 16° |
| 2026-05-06 02:58 | 55.62355 | 12.64438 | 25 ft | 15 kts | 13° |
| 2026-05-06 02:58 | 55.62458 | 12.64483 | 26 ft | 15 kts | 13° |
| 2026-05-06 02:58 | 55.62534 | 12.64376 | 26 ft | 15 kts | 303° |
| 2026-05-06 02:59 | 55.62593 | 12.64258 | 26 ft | 7 kts | 26° |
| 2026-05-06 02:59 | 55.62603 | 12.64325 | 26 ft | 5 kts | 66° |
| 2026-05-06 02:59 | 55.62616 | 12.64381 | 26 ft | 3 kts | 67° |
| 2026-05-06 02:59 | 55.62625 | 12.64418 | 26 ft | 1 kts | 66° |
| 2026-05-06 03:00 | 55.62628 | 12.64430 | 26 ft | 0 kts | 66° |